KDAA/DAA METAR and TAF weather

Enter ICAO airport designator
Station Type Date Time Source
KDAA METAR 2020/07/12 18:56 UTC NOAA

KDAA 121856Z AUTO 13005KT 10SM BKN080 30/19 A2975 RMK AO2 DZB25E34 SLP077 P0000 T03030190 $


Station Type Date Time Source
KDAA Decoded METAR 2020/07/12 18:56 UTC NOAA

Fort Belvoir, VA, United States (KDAA) 38-43N 077-11W
Jul 12, 2020 - 02:56 PM EDT / 2020.07.12 1856 UTC
Wind: from the SE (130 degrees) at 6 MPH (5 KT):0
Visibility: 10 mile(s):0
Sky conditions: mostly cloudy
Precipitation last hour: A trace
Temperature: 86.5 F (30.3 C)
Dew Point: 66.2 F (19.0 C)
Relative Humidity: 50%
Pressure (altimeter): 29.75 in. Hg (1007 hPa)
ob: KDAA 121856Z AUTO 13005KT 10SM BKN080 30/19 A2975 RMK AO2 DZB25E34 SLP077 P0000 T03030190
cycle: 19

Station Type Date Time Source
KDAA TAF 2020/07/11 01:30 UTC NOAA

TAF KDAA 110100Z 1101/1207 27009KT 9999 FEW070 QNH2968INS
BECMG 1102/1103 15006KT 9999 BKN050 QNH2971INS
TEMPO 1103/1106 VCTS BKN040CB
BECMG 1111/1112 28009KT 9999 FEW050 QNH2969INS
BECMG 1200/1201 26006KT 9999 SKC QNH2975INS TX32/1120Z TN24/1110Z LAST NO
AMDS AFT 1101 NEXT 1309

Example: see airport list